createdAt,value
2018-08-07T00:00:04.539Z,33.10
2018-08-07T00:01:04.527Z,32.60
2018-08-07T00:02:04.515Z,32.20
2018-08-07T00:03:04.502Z,34.40
2018-08-07T00:04:04.486Z,33.80
2018-08-07T00:05:04.472Z,34.70
2018-08-07T00:06:04.460Z,33.80
2018-08-07T00:07:04.448Z,35.20
2018-08-07T00:08:04.434Z,34.10
2018-08-07T00:09:04.419Z,34.60
2018-08-07T00:10:04.409Z,35.70
2018-08-07T00:11:04.395Z,33.90
2018-08-07T00:12:04.382Z,31.40
2018-08-07T00:13:04.368Z,31.30
2018-08-07T00:14:04.357Z,34.70
2018-08-07T00:15:04.345Z,32.30
2018-08-07T00:16:04.331Z,33.90
2018-08-07T00:17:04.320Z,35.00
2018-08-07T00:18:04.309Z,33.40
2018-08-07T00:19:04.295Z,33.70
2018-08-07T00:20:04.283Z,34.00
2018-08-07T00:21:04.269Z,34.00
2018-08-07T00:22:04.283Z,33.80
2018-08-07T00:23:04.245Z,33.60
2018-08-07T00:24:04.233Z,32.20
2018-08-07T00:25:04.221Z,34.30
2018-08-07T00:26:04.209Z,31.90
2018-08-07T00:27:04.197Z,32.90
2018-08-07T00:28:04.186Z,33.90
2018-08-07T00:29:04.172Z,30.70
2018-08-07T00:30:04.160Z,32.90
2018-08-07T00:31:04.148Z,31.90
2018-08-07T00:32:04.136Z,32.40
2018-08-07T00:33:04.124Z,33.80
2018-08-07T00:34:04.118Z,36.20
2018-08-07T00:35:04.099Z,33.30
2018-08-07T00:36:04.089Z,34.00
2018-08-07T00:37:04.076Z,35.00
2018-08-07T00:38:04.062Z,36.80
2018-08-07T00:39:04.050Z,35.70
2018-08-07T00:40:04.038Z,38.60
2018-08-07T00:41:04.032Z,38.30
2018-08-07T00:42:04.014Z,37.40
2018-08-07T00:43:04.001Z,34.80
2018-08-07T00:44:03.989Z,40.10
2018-08-07T00:45:03.978Z,35.60
2018-08-07T00:46:03.964Z,35.30
2018-08-07T00:47:03.952Z,35.30
2018-08-07T00:48:03.940Z,35.40
2018-08-07T00:49:03.928Z,37.50
2018-08-07T00:50:03.941Z,36.60
2018-08-07T00:51:03.904Z,36.40
2018-08-07T00:52:03.886Z,39.80
2018-08-07T00:53:03.873Z,33.20
2018-08-07T00:54:03.863Z,35.30
2018-08-07T00:55:03.849Z,34.30
2018-08-07T00:56:03.837Z,33.20
2018-08-07T00:57:03.823Z,33.00
2018-08-07T00:58:03.813Z,34.40
2018-08-07T00:59:03.800Z,32.90
2018-08-07T01:00:03.789Z,36.30
2018-08-07T01:01:03.774Z,32.80
2018-08-07T01:02:03.764Z,32.50
2018-08-07T01:03:03.752Z,33.90
2018-08-07T01:04:03.738Z,32.70
2018-08-07T01:05:03.724Z,35.00
2018-08-07T01:06:03.712Z,32.90
2018-08-07T01:07:03.700Z,37.50
2018-08-07T01:08:03.722Z,35.00
2018-08-07T01:09:03.680Z,39.60
2018-08-07T01:10:03.667Z,38.40
2018-08-07T01:11:03.653Z,39.70
2018-08-07T01:12:03.639Z,37.60
2018-08-07T01:13:03.629Z,37.10
2018-08-07T01:14:03.613Z,38.40
2018-08-07T01:15:03.604Z,39.30
2018-08-07T01:16:03.589Z,38.20
2018-08-07T01:17:03.577Z,41.60
2018-08-07T01:18:03.567Z,40.00
2018-08-07T01:19:03.554Z,40.90
2018-08-07T01:20:03.541Z,41.00
2018-08-07T01:21:03.529Z,40.20
2018-08-07T01:22:03.515Z,43.40
2018-08-07T01:23:03.507Z,41.90
2018-08-07T01:24:03.497Z,38.70
2018-08-07T01:25:03.478Z,41.40
2018-08-07T01:26:03.467Z,41.20
2018-08-07T01:27:03.523Z,43.70
2018-08-07T01:28:03.442Z,42.30
2018-08-07T01:29:03.432Z,40.60
2018-08-07T01:30:03.418Z,41.00
2018-08-07T01:31:03.407Z,42.80
2018-08-07T01:32:03.393Z,42.70
2018-08-07T01:33:03.380Z,41.30
2018-08-07T01:34:03.368Z,44.40
2018-08-07T01:35:03.356Z,40.20
2018-08-07T01:36:03.345Z,39.90
2018-08-07T01:37:03.331Z,40.10
2018-08-07T01:38:03.319Z,43.80
2018-08-07T01:39:03.307Z,38.60
2018-08-07T01:40:03.297Z,41.70
2018-08-07T01:41:03.282Z,46.60
2018-08-07T01:42:03.274Z,44.20
2018-08-07T01:43:03.259Z,40.70
2018-08-07T01:44:03.246Z,41.60
2018-08-07T01:45:03.236Z,41.90
2018-08-07T01:46:03.221Z,45.40
2018-08-07T01:47:03.209Z,45.10
2018-08-07T01:48:03.197Z,43.90
2018-08-07T01:49:03.184Z,44.00
2018-08-07T01:50:03.173Z,41.30
2018-08-07T01:51:03.160Z,39.70
2018-08-07T01:52:03.148Z,43.60
2018-08-07T01:53:03.137Z,42.90
2018-08-07T01:54:03.124Z,40.20
2018-08-07T01:55:03.115Z,39.70
2018-08-07T01:56:03.100Z,40.90
2018-08-07T01:57:03.086Z,39.20
2018-08-07T01:58:03.074Z,42.90
2018-08-07T01:59:03.062Z,42.70
2018-08-07T02:00:03.051Z,40.80
2018-08-07T02:01:03.037Z,42.30
2018-08-07T02:02:03.026Z,41.70
2018-08-07T02:03:03.014Z,43.20
2018-08-07T02:04:03.002Z,42.30
2018-08-07T02:05:02.988Z,39.30
2018-08-07T02:06:02.976Z,41.80
2018-08-07T02:07:02.966Z,42.70
2018-08-07T02:08:02.953Z,40.30
2018-08-07T02:09:02.939Z,42.10
2018-08-07T02:10:02.927Z,42.20
2018-08-07T02:11:02.915Z,41.50
2018-08-07T02:12:02.902Z,43.90
2018-08-07T02:13:02.890Z,42.00
2018-08-07T02:14:02.877Z,39.10
2018-08-07T02:15:02.865Z,42.00
2018-08-07T02:16:02.853Z,39.30
2018-08-07T02:17:02.840Z,39.70
2018-08-07T02:18:02.829Z,38.50
2018-08-07T02:19:02.817Z,39.70
2018-08-07T02:20:02.804Z,38.90
2018-08-07T02:21:02.790Z,41.00
2018-08-07T02:22:02.787Z,38.00
2018-08-07T02:23:02.765Z,39.00
2018-08-07T02:24:02.753Z,36.40
2018-08-07T02:25:02.740Z,39.00
2018-08-07T02:26:02.727Z,37.80
2018-08-07T02:27:02.715Z,39.00
2018-08-07T02:28:02.705Z,40.00
2018-08-07T02:29:02.745Z,38.50
2018-08-07T02:30:02.698Z,40.00
2018-08-07T02:31:02.666Z,40.00
2018-08-07T02:32:02.654Z,39.20
2018-08-07T02:33:02.641Z,37.50
2018-08-07T02:34:02.629Z,38.10
2018-08-07T02:35:02.617Z,38.00
2018-08-07T02:36:02.605Z,41.00
2018-08-07T02:37:02.592Z,38.30
2018-08-07T02:38:02.580Z,40.40
2018-08-07T02:39:02.567Z,38.50
2018-08-07T02:40:02.556Z,37.90
2018-08-07T02:41:02.542Z,38.20
2018-08-07T02:42:02.530Z,36.50
2018-08-07T02:43:02.517Z,36.40
2018-08-07T02:44:02.505Z,37.10
2018-08-07T02:45:02.493Z,36.00
2018-08-07T02:46:02.480Z,37.30
2018-08-07T02:47:02.468Z,34.60
2018-08-07T02:48:02.456Z,32.20
2018-08-07T02:49:02.450Z,30.10
2018-08-07T02:50:02.435Z,29.80
2018-08-07T02:51:02.419Z,28.80
2018-08-07T02:52:02.406Z,28.80
2018-08-07T02:53:02.393Z,26.70
2018-08-07T02:54:02.381Z,25.80
2018-08-07T02:55:02.368Z,26.40
2018-08-07T02:56:02.356Z,25.90
2018-08-07T02:57:02.343Z,27.50
2018-08-07T02:58:02.343Z,25.50
2018-08-07T02:59:02.318Z,26.30
2018-08-07T03:00:02.307Z,24.90
2018-08-07T03:01:02.292Z,26.60
2018-08-07T03:02:02.283Z,26.30
2018-08-07T03:03:02.271Z,26.10
2018-08-07T03:04:02.255Z,26.10
2018-08-07T03:05:02.243Z,26.20
2018-08-07T03:06:02.231Z,26.60
2018-08-07T03:07:02.218Z,27.00
2018-08-07T03:08:02.210Z,26.00
2018-08-07T03:09:02.192Z,26.90
2018-08-07T03:10:02.181Z,27.20
2018-08-07T03:11:02.169Z,28.10
2018-08-07T03:12:02.155Z,27.10
2018-08-07T03:13:02.141Z,26.90
2018-08-07T03:14:02.129Z,27.20
2018-08-07T03:15:02.122Z,26.20
2018-08-07T03:16:02.106Z,25.40
2018-08-07T03:17:02.094Z,26.50
2018-08-07T03:18:02.079Z,25.60
2018-08-07T03:19:02.070Z,25.80
2018-08-07T03:20:02.056Z,24.90
2018-08-07T03:21:02.041Z,24.20
2018-08-07T03:22:02.028Z,23.80
2018-08-07T03:23:02.016Z,23.60
2018-08-07T03:24:02.013Z,24.90
2018-08-07T03:25:01.990Z,24.60
2018-08-07T03:26:01.979Z,24.40
2018-08-07T03:27:01.965Z,24.80
2018-08-07T03:28:01.954Z,25.10
2018-08-07T03:29:01.939Z,25.30
2018-08-07T03:30:01.935Z,25.20
2018-08-07T03:31:01.914Z,25.00
2018-08-07T03:32:01.901Z,26.00
2018-08-07T03:33:01.887Z,27.80
2018-08-07T03:34:01.875Z,25.80
2018-08-07T03:35:01.862Z,22.20
2018-08-07T03:36:01.850Z,24.60
2018-08-07T03:37:01.836Z,25.90
2018-08-07T03:38:01.824Z,26.10
2018-08-07T03:39:01.813Z,26.90
2018-08-07T03:40:01.798Z,29.20
2018-08-07T03:41:01.783Z,25.90
2018-08-07T03:42:01.771Z,26.50
2018-08-07T03:43:01.760Z,23.30
2018-08-07T03:44:01.750Z,22.30
2018-08-07T03:45:01.732Z,23.00
2018-08-07T03:46:01.720Z,20.30
2018-08-07T03:47:01.707Z,20.50
2018-08-07T03:48:01.694Z,19.80
2018-08-07T03:49:01.680Z,19.00
2018-08-07T03:50:01.668Z,17.90
2018-08-07T03:51:01.862Z,18.00
2018-08-07T03:52:01.642Z,19.70
2018-08-07T03:53:01.643Z,18.90
2018-08-07T03:54:01.616Z,18.90
2018-08-07T03:55:01.602Z,18.40
2018-08-07T03:56:01.591Z,18.60
2018-08-07T03:57:01.676Z,19.00
2018-08-07T03:58:01.563Z,18.30
2018-08-07T03:59:01.601Z,18.80
2018-08-07T04:00:01.538Z,16.90
2018-08-07T04:01:01.523Z,17.00
2018-08-07T04:02:01.510Z,17.10
2018-08-07T04:03:01.499Z,17.60
2018-08-07T04:04:01.485Z,17.20
2018-08-07T04:05:01.578Z,16.60
2018-08-07T04:06:01.458Z,17.40
2018-08-07T04:07:01.444Z,17.10
2018-08-07T04:08:01.432Z,17.80
2018-08-07T04:09:01.418Z,16.70
2018-08-07T04:10:01.404Z,18.20
2018-08-07T04:11:01.391Z,18.90
2018-08-07T04:12:01.379Z,17.30
2018-08-07T04:13:01.364Z,17.30
2018-08-07T04:14:01.351Z,19.20
2018-08-07T04:15:01.438Z,18.50
2018-08-07T04:16:01.326Z,17.50
2018-08-07T04:17:01.312Z,18.50
2018-08-07T04:18:01.299Z,19.00
2018-08-07T04:19:01.285Z,18.80
2018-08-07T04:20:01.273Z,19.20
2018-08-07T04:21:01.258Z,18.30
2018-08-07T04:22:01.246Z,18.80
2018-08-07T04:23:01.232Z,18.30
2018-08-07T04:24:01.221Z,18.00
2018-08-07T04:25:01.206Z,17.80
2018-08-07T04:26:01.225Z,18.40
2018-08-07T04:27:01.180Z,19.40
2018-08-07T04:28:01.167Z,18.60
2018-08-07T04:29:01.153Z,18.70
2018-08-07T04:30:01.145Z,18.50
2018-08-07T04:31:01.127Z,17.40
2018-08-07T04:32:01.116Z,17.80
2018-08-07T04:33:01.201Z,16.60
2018-08-07T04:34:01.089Z,16.70
2018-08-07T04:35:01.074Z,16.20
2018-08-07T04:36:01.061Z,16.60
2018-08-07T04:37:01.047Z,18.50
2018-08-07T04:38:01.035Z,16.00
2018-08-07T04:39:01.021Z,18.70
2018-08-07T04:40:01.009Z,16.90
2018-08-07T04:41:00.995Z,16.00
2018-08-07T04:42:00.983Z,15.90
2018-08-07T04:43:00.969Z,15.90
2018-08-07T04:44:00.957Z,14.80
2018-08-07T04:45:00.942Z,14.40
2018-08-07T04:46:00.930Z,15.20
2018-08-07T04:47:00.916Z,14.20
2018-08-07T04:48:00.904Z,13.40
2018-08-07T04:49:00.890Z,13.90
2018-08-07T04:50:00.878Z,14.30
2018-08-07T04:51:00.863Z,14.00
2018-08-07T04:52:00.851Z,12.80
2018-08-07T04:53:00.837Z,14.50
2018-08-07T04:54:00.824Z,14.90
2018-08-07T04:55:00.817Z,16.60
2018-08-07T04:56:00.798Z,17.20
2018-08-07T04:57:00.934Z,17.70
2018-08-07T04:58:00.773Z,16.50
2018-08-07T04:59:00.757Z,16.20
2018-08-07T05:00:00.744Z,17.20
2018-08-07T05:01:00.731Z,16.20
2018-08-07T05:02:00.718Z,16.70
2018-08-07T05:03:00.707Z,17.10
2018-08-07T05:04:00.691Z,18.20
2018-08-07T05:05:00.676Z,17.40
2018-08-07T05:06:00.663Z,17.40
2018-08-07T05:07:00.651Z,16.10
2018-08-07T05:08:00.637Z,15.80
2018-08-07T05:09:00.624Z,15.90
2018-08-07T05:10:00.609Z,15.40
2018-08-07T05:11:00.596Z,15.90
2018-08-07T05:12:00.590Z,14.60
2018-08-07T05:13:00.570Z,15.60
2018-08-07T05:14:00.563Z,14.70
2018-08-07T05:15:00.643Z,14.70
2018-08-07T05:16:00.530Z,14.90
2018-08-07T05:17:00.516Z,15.80
2018-08-07T05:18:00.504Z,15.30
2018-08-07T05:19:00.491Z,14.60
2018-08-07T05:20:00.477Z,15.40
2018-08-07T05:21:00.614Z,15.70
2018-08-07T05:22:00.449Z,14.50
2018-08-07T05:23:00.438Z,13.20
2018-08-07T05:24:00.424Z,13.40
2018-08-07T05:25:00.410Z,13.20
2018-08-07T05:26:00.397Z,11.70
2018-08-07T05:27:00.484Z,11.70
2018-08-07T05:28:00.371Z,11.10
2018-08-07T05:29:00.357Z,11.00
2018-08-07T05:30:00.385Z,10.20
2018-08-07T05:31:00.334Z,9.80
2018-08-07T05:32:00.320Z,9.70
2018-08-07T05:33:00.404Z,9.30
2018-08-07T05:34:00.290Z,8.80
2018-08-07T05:35:00.280Z,9.10
2018-08-07T05:36:00.325Z,8.20
2018-08-07T05:37:00.251Z,8.90
2018-08-07T05:38:00.238Z,8.60
2018-08-07T05:39:00.325Z,10.10
2018-08-07T05:40:00.212Z,9.40
2018-08-07T05:41:00.198Z,9.10
2018-08-07T05:42:00.186Z,8.10
2018-08-07T05:43:00.174Z,9.00
2018-08-07T05:44:00.161Z,8.20
2018-08-07T05:45:00.246Z,8.30
2018-08-07T05:46:00.133Z,8.30
2018-08-07T05:47:00.121Z,8.60
2018-08-07T05:48:00.108Z,8.00
2018-08-07T05:49:00.095Z,7.90
2018-08-07T05:50:00.110Z,9.00
2018-08-07T05:51:00.432Z,7.80
2018-08-07T05:52:00.060Z,8.00
2018-08-07T05:53:00.042Z,7.60
2018-08-07T05:54:00.032Z,7.70
2018-08-07T05:55:00.017Z,7.90
2018-08-07T05:56:00.003Z,7.30
2018-08-07T05:57:00.140Z,6.90
2018-08-07T05:58:00.021Z,8.30
2018-08-07T05:58:59.963Z,7.60
2018-08-07T05:59:59.950Z,7.30
2018-08-07T06:00:59.938Z,7.30
2018-08-07T06:01:59.925Z,7.00
2018-08-07T06:03:00.064Z,8.10
2018-08-07T06:03:59.898Z,7.40
2018-08-07T06:04:59.885Z,7.70
2018-08-07T06:05:59.874Z,7.20
2018-08-07T06:06:59.859Z,7.50
2018-08-07T06:07:59.847Z,7.60
2018-08-07T06:08:59.935Z,7.90
2018-08-07T06:09:59.822Z,8.20
2018-08-07T06:10:59.808Z,8.30
2018-08-07T06:11:59.803Z,7.10
2018-08-07T06:12:59.782Z,7.70
2018-08-07T06:13:59.770Z,6.90
2018-08-07T06:14:59.858Z,7.30
2018-08-07T06:15:59.743Z,8.00
2018-08-07T06:16:59.730Z,9.10
2018-08-07T06:17:59.717Z,7.50
2018-08-07T06:18:59.726Z,7.80
2018-08-07T06:19:59.692Z,8.70
2018-08-07T06:20:59.679Z,8.60
2018-08-07T06:21:59.666Z,9.30
2018-08-07T06:22:59.653Z,9.10
2018-08-07T06:23:59.640Z,10.10
2018-08-07T06:24:59.627Z,8.90
2018-08-07T06:25:59.614Z,8.80
2018-08-07T06:26:59.601Z,9.50
2018-08-07T06:27:59.589Z,9.50
2018-08-07T06:28:59.575Z,9.20
2018-08-07T06:29:59.571Z,10.30
2018-08-07T06:30:59.550Z,10.60
2018-08-07T06:31:59.539Z,10.20
2018-08-07T06:32:59.635Z,11.10
2018-08-07T06:33:59.512Z,11.20
2018-08-07T06:34:59.498Z,11.30
2018-08-07T06:35:59.490Z,11.70
2018-08-07T06:36:59.472Z,12.30
2018-08-07T06:37:59.463Z,12.40
2018-08-07T06:38:59.446Z,13.10
2018-08-07T06:39:59.434Z,13.10
2018-08-07T06:40:59.420Z,14.30
2018-08-07T06:41:59.408Z,13.10
2018-08-07T06:42:59.455Z,12.30
2018-08-07T06:43:59.383Z,13.20
2018-08-07T06:44:59.469Z,13.90
2018-08-07T06:45:59.357Z,15.10
2018-08-07T06:46:59.343Z,14.00
2018-08-07T06:47:59.347Z,14.50
2018-08-07T06:48:59.317Z,14.20
2018-08-07T06:49:59.305Z,14.20
2018-08-07T06:50:59.292Z,14.50
2018-08-07T06:51:59.280Z,14.50
2018-08-07T06:52:59.268Z,14.40
2018-08-07T06:53:59.256Z,14.10
2018-08-07T06:54:59.242Z,14.70
2018-08-07T06:55:59.230Z,14.60
2018-08-07T06:56:59.236Z,15.00
2018-08-07T06:57:59.207Z,15.90
2018-08-07T06:58:59.191Z,15.60
2018-08-07T06:59:59.178Z,15.50
2018-08-07T07:00:59.163Z,16.50
2018-08-07T07:01:59.151Z,15.50
2018-08-07T07:02:59.240Z,16.30
2018-08-07T07:03:59.128Z,15.20
2018-08-07T07:04:59.115Z,14.80
2018-08-07T07:05:59.100Z,14.40
2018-08-07T07:06:59.088Z,16.00
2018-08-07T07:07:59.076Z,16.40
2018-08-07T07:08:59.165Z,15.20
2018-08-07T07:09:59.049Z,15.60
2018-08-07T07:10:59.036Z,17.30
2018-08-07T07:11:59.024Z,15.40
2018-08-07T07:12:59.020Z,14.30
2018-08-07T07:13:58.997Z,16.40
2018-08-07T07:14:59.116Z,16.40
2018-08-07T07:15:58.972Z,16.00
2018-08-07T07:16:58.966Z,15.60
2018-08-07T07:17:58.947Z,16.10
2018-08-07T07:18:58.936Z,16.50
2018-08-07T07:19:58.922Z,15.30
2018-08-07T07:20:58.937Z,16.60
2018-08-07T07:21:58.897Z,15.10
2018-08-07T07:22:58.884Z,15.80
2018-08-07T07:23:58.871Z,13.20
2018-08-07T07:24:58.859Z,11.70
2018-08-07T07:25:58.845Z,10.80
2018-08-07T07:26:58.836Z,9.10
2018-08-07T07:27:58.820Z,9.10
2018-08-07T07:28:58.808Z,8.70
2018-08-07T07:29:58.794Z,8.60
2018-08-07T07:30:58.803Z,8.10
2018-08-07T07:31:58.771Z,8.50
2018-08-07T07:32:58.905Z,8.60
2018-08-07T07:33:58.771Z,7.60
2018-08-07T07:34:58.730Z,7.60
2018-08-07T07:35:58.720Z,8.10
2018-08-07T07:36:58.706Z,7.20
2018-08-07T07:37:58.694Z,7.80
2018-08-07T07:38:58.781Z,8.10
2018-08-07T07:39:58.668Z,8.00
2018-08-07T07:40:58.655Z,8.10
2018-08-07T07:41:58.642Z,8.40
2018-08-07T07:42:58.632Z,9.30
2018-08-07T07:43:58.617Z,10.90
2018-08-07T07:44:58.604Z,8.20
2018-08-07T07:45:58.592Z,9.20
2018-08-07T07:46:58.686Z,8.50
2018-08-07T07:47:58.565Z,10.30
2018-08-07T07:48:58.552Z,10.10
2018-08-07T07:49:58.541Z,10.30
2018-08-07T07:50:58.528Z,10.10
2018-08-07T07:51:58.514Z,10.00
2018-08-07T07:52:58.501Z,10.40
2018-08-07T07:53:58.528Z,10.70
2018-08-07T07:54:58.475Z,11.80
2018-08-07T07:55:58.462Z,11.10
2018-08-07T07:56:58.599Z,10.90
2018-08-07T07:57:58.440Z,12.10
2018-08-07T07:58:58.425Z,12.00
2018-08-07T07:59:58.411Z,12.20
2018-08-07T08:00:58.397Z,12.90
2018-08-07T08:01:58.386Z,12.60
2018-08-07T08:02:58.472Z,11.70
2018-08-07T08:03:58.359Z,13.80
2018-08-07T08:04:58.346Z,12.20
2018-08-07T08:05:58.349Z,13.90
2018-08-07T08:06:58.335Z,12.00
2018-08-07T08:07:58.309Z,12.00
2018-08-07T08:08:58.395Z,12.10
2018-08-07T08:09:58.282Z,12.20
2018-08-07T08:10:58.272Z,12.30
2018-08-07T08:11:58.257Z,12.40
2018-08-07T08:12:58.244Z,13.40
2018-08-07T08:13:58.231Z,11.80
2018-08-07T08:14:58.422Z,12.10
2018-08-07T08:15:58.208Z,12.30
2018-08-07T08:16:58.193Z,11.80
2018-08-07T08:17:58.180Z,11.60
2018-08-07T08:18:58.167Z,11.80
2018-08-07T08:19:58.154Z,10.70
2018-08-07T08:20:58.141Z,12.30
2018-08-07T08:21:58.128Z,11.00
2018-08-07T08:22:58.116Z,11.20
2018-08-07T08:23:58.103Z,11.40
2018-08-07T08:24:58.090Z,11.40
2018-08-07T08:25:58.077Z,11.70
2018-08-07T08:26:58.064Z,11.90
2018-08-07T08:27:58.052Z,13.50
2018-08-07T08:28:58.062Z,11.60
2018-08-07T08:29:58.121Z,11.80
2018-08-07T08:30:58.013Z,10.70
2018-08-07T08:31:58.000Z,11.70
2018-08-07T08:32:58.088Z,12.00
2018-08-07T08:33:57.974Z,11.10
2018-08-07T08:34:58.018Z,13.10
2018-08-07T08:35:57.949Z,13.30
2018-08-07T08:36:57.935Z,12.60
2018-08-07T08:37:57.923Z,12.20
2018-08-07T08:38:57.910Z,11.50
2018-08-07T08:39:57.898Z,11.50
2018-08-07T08:40:57.900Z,13.00
2018-08-07T08:41:57.872Z,12.10
2018-08-07T08:42:57.862Z,12.80
2018-08-07T08:43:57.848Z,12.10
2018-08-07T08:44:57.935Z,15.00
2018-08-07T08:45:57.821Z,13.40
2018-08-07T08:46:57.809Z,15.40
2018-08-07T08:47:57.828Z,16.00
2018-08-07T08:48:57.784Z,15.40
2018-08-07T08:49:57.772Z,17.00
2018-08-07T08:50:57.857Z,15.00
2018-08-07T08:51:57.745Z,14.80
2018-08-07T08:52:57.733Z,16.20
2018-08-07T08:53:57.760Z,18.50
2018-08-07T08:54:57.707Z,20.10
2018-08-07T08:55:57.694Z,21.00
2018-08-07T08:56:57.682Z,22.00
2018-08-07T08:57:57.667Z,24.20
2018-08-07T08:58:57.655Z,24.00
2018-08-07T08:59:57.642Z,23.90
2018-08-07T09:00:57.630Z,23.20
2018-08-07T09:01:57.617Z,24.90
2018-08-07T09:02:57.805Z,25.50
2018-08-07T09:03:57.593Z,27.00
2018-08-07T09:04:57.654Z,27.10
2018-08-07T09:05:57.565Z,25.50
2018-08-07T09:06:57.553Z,29.40
2018-08-07T09:07:57.540Z,31.30
2018-08-07T09:08:57.526Z,33.10
2018-08-07T09:09:57.513Z,35.70
2018-08-07T09:10:57.501Z,31.60
2018-08-07T09:11:57.489Z,33.30
2018-08-07T09:12:57.474Z,32.80
2018-08-07T09:13:57.462Z,33.90
2018-08-07T09:14:57.449Z,39.50
2018-08-07T09:15:57.436Z,38.90
2018-08-07T09:16:57.424Z,36.20
2018-08-07T09:17:57.409Z,35.10
2018-08-07T09:18:57.396Z,38.80
2018-08-07T09:19:57.389Z,36.90
2018-08-07T09:20:57.470Z,36.10
2018-08-07T09:21:57.360Z,36.40
2018-08-07T09:22:57.346Z,35.80
2018-08-07T09:23:57.336Z,35.80
2018-08-07T09:24:57.317Z,37.00
2018-08-07T09:25:57.507Z,35.30
2018-08-07T09:26:57.295Z,38.10
2018-08-07T09:27:57.279Z,36.90
2018-08-07T09:28:57.265Z,38.80
2018-08-07T09:29:57.253Z,36.30
2018-08-07T09:30:57.239Z,37.10
2018-08-07T09:31:57.314Z,38.80
2018-08-07T09:32:57.274Z,35.00
2018-08-07T09:33:57.200Z,36.10
2018-08-07T09:34:57.187Z,39.70
2018-08-07T09:35:57.174Z,36.70
2018-08-07T09:36:57.165Z,37.70
2018-08-07T09:37:57.146Z,34.50
2018-08-07T09:38:57.134Z,34.60
2018-08-07T09:39:57.148Z,33.10
2018-08-07T09:40:57.107Z,34.10
2018-08-07T09:41:57.095Z,33.40
2018-08-07T09:42:57.083Z,33.90
2018-08-07T09:43:57.068Z,31.50
2018-08-07T09:44:57.156Z,33.50
2018-08-07T09:45:57.042Z,34.00
2018-08-07T09:46:57.032Z,38.20
2018-08-07T09:47:57.020Z,38.30
2018-08-07T09:48:57.001Z,34.10
2018-08-07T09:49:56.989Z,36.20
2018-08-07T09:50:56.975Z,33.60
2018-08-07T09:51:56.963Z,33.70
2018-08-07T09:52:56.950Z,33.80
2018-08-07T09:53:56.936Z,34.70
2018-08-07T09:54:56.923Z,30.80
2018-08-07T09:55:56.910Z,29.00
2018-08-07T09:56:56.896Z,27.00
2018-08-07T09:57:56.885Z,27.60
2018-08-07T09:58:56.870Z,29.60
2018-08-07T09:59:56.857Z,31.30
2018-08-07T10:00:56.844Z,29.80
2018-08-07T10:01:56.831Z,30.40
2018-08-07T10:02:56.918Z,28.90
2018-08-07T10:03:56.806Z,34.20
2018-08-07T10:04:56.791Z,32.80
2018-08-07T10:05:56.778Z,33.40
2018-08-07T10:06:56.766Z,30.00
2018-08-07T10:07:56.754Z,30.00
2018-08-07T10:08:56.739Z,30.70
2018-08-07T10:09:56.727Z,31.90
2018-08-07T10:10:56.713Z,31.00
2018-08-07T10:11:56.700Z,31.30
2018-08-07T10:12:56.686Z,31.80
2018-08-07T10:13:56.673Z,37.60
2018-08-07T10:14:56.764Z,34.10
2018-08-07T10:15:56.649Z,28.50
2018-08-07T10:16:56.633Z,29.00
2018-08-07T10:17:56.647Z,28.20
2018-08-07T10:18:56.608Z,28.30
2018-08-07T10:19:56.595Z,26.20
2018-08-07T10:20:56.681Z,23.40
2018-08-07T10:21:56.569Z,26.60
2018-08-07T10:22:56.555Z,24.50
2018-08-07T10:23:56.542Z,25.20
2018-08-07T10:24:56.529Z,23.20
2018-08-07T10:25:56.516Z,23.30
2018-08-07T10:26:56.503Z,24.50
2018-08-07T10:27:56.491Z,24.30
2018-08-07T10:28:56.477Z,23.70
2018-08-07T10:29:56.464Z,21.30
2018-08-07T10:30:56.451Z,21.40
2018-08-07T10:31:56.438Z,22.30
2018-08-07T10:32:56.427Z,21.90
2018-08-07T10:33:56.412Z,21.90
2018-08-07T10:34:56.413Z,21.90
2018-08-07T10:35:56.386Z,22.20
2018-08-07T10:36:56.372Z,22.80
2018-08-07T10:37:56.361Z,22.40
2018-08-07T10:38:56.347Z,22.00
2018-08-07T10:39:56.333Z,22.00
2018-08-07T10:40:56.395Z,22.10
2018-08-07T10:41:56.307Z,23.30
2018-08-07T10:42:56.302Z,22.90
2018-08-07T10:43:56.331Z,22.10
2018-08-07T10:44:56.369Z,22.20
2018-08-07T10:45:56.255Z,23.60
2018-08-07T10:46:56.242Z,22.30
2018-08-07T10:47:56.234Z,23.20
2018-08-07T10:48:56.217Z,23.10
2018-08-07T10:49:56.203Z,23.90
2018-08-07T10:50:56.276Z,22.80
2018-08-07T10:51:56.178Z,22.90
2018-08-07T10:52:56.163Z,21.30
2018-08-07T10:53:56.153Z,22.50
2018-08-07T10:54:56.139Z,22.20
2018-08-07T10:55:56.125Z,21.10
2018-08-07T10:56:56.211Z,20.40
2018-08-07T10:57:56.098Z,22.00
2018-08-07T10:58:56.086Z,20.90
2018-08-07T10:59:56.072Z,21.00
2018-08-07T11:00:56.059Z,21.50
2018-08-07T11:01:56.046Z,21.10
2018-08-07T11:02:56.034Z,19.80
2018-08-07T11:03:56.020Z,18.50
2018-08-07T11:04:56.006Z,18.80
2018-08-07T11:05:55.993Z,18.50
2018-08-07T11:06:55.981Z,18.90
2018-08-07T11:07:55.967Z,17.50
2018-08-07T11:08:55.953Z,18.40
2018-08-07T11:09:55.941Z,19.00
2018-08-07T11:10:55.928Z,18.30
2018-08-07T11:11:55.916Z,19.10
2018-08-07T11:12:55.920Z,18.10
2018-08-07T11:13:55.888Z,19.20
2018-08-07T11:14:55.875Z,18.40
2018-08-07T11:15:55.863Z,18.00
2018-08-07T11:16:55.849Z,19.10
2018-08-07T11:17:55.836Z,18.20
2018-08-07T11:18:55.823Z,18.30
2018-08-07T11:19:55.812Z,19.30
2018-08-07T11:20:55.796Z,17.40
2018-08-07T11:21:55.784Z,19.40
2018-08-07T11:22:55.771Z,19.00
2018-08-07T11:23:55.758Z,18.10
2018-08-07T11:24:55.746Z,18.70
2018-08-07T11:25:55.731Z,18.80
2018-08-07T11:26:55.719Z,18.90
2018-08-07T11:27:55.707Z,18.30
2018-08-07T11:28:55.694Z,17.90
2018-08-07T11:29:55.709Z,18.80
2018-08-07T11:30:55.669Z,20.30
2018-08-07T11:31:55.656Z,19.30
2018-08-07T11:32:55.643Z,19.80
2018-08-07T11:33:55.627Z,20.30
2018-08-07T11:34:55.616Z,19.60
2018-08-07T11:35:55.658Z,22.10
2018-08-07T11:36:55.589Z,20.10
2018-08-07T11:37:55.579Z,21.50
2018-08-07T11:38:55.663Z,21.60
2018-08-07T11:39:55.551Z,20.20
2018-08-07T11:40:55.537Z,20.80
2018-08-07T11:41:55.525Z,20.20
2018-08-07T11:42:55.517Z,21.10
2018-08-07T11:43:55.500Z,19.30
2018-08-07T11:44:55.487Z,20.10
2018-08-07T11:45:55.474Z,19.10
2018-08-07T11:46:55.461Z,18.20
2018-08-07T11:47:55.509Z,15.40
2018-08-07T11:48:55.445Z,14.30
2018-08-07T11:49:55.423Z,15.10
2018-08-07T11:50:55.411Z,14.20
2018-08-07T11:51:55.399Z,14.00
2018-08-07T11:52:55.387Z,15.20
2018-08-07T11:53:55.373Z,15.70
2018-08-07T11:54:55.462Z,15.10
2018-08-07T11:55:55.348Z,15.50
2018-08-07T11:56:55.335Z,14.40
2018-08-07T11:57:55.330Z,13.80
2018-08-07T11:58:55.314Z,13.10
2018-08-07T11:59:55.298Z,13.70
2018-08-07T12:00:55.386Z,13.20
2018-08-07T12:01:55.292Z,13.00
2018-08-07T12:02:55.264Z,13.60
2018-08-07T12:03:55.248Z,13.50
2018-08-07T12:04:55.239Z,12.60
2018-08-07T12:06:55.312Z,13.10
2018-08-07T12:07:55.253Z,13.30
2018-08-07T12:08:55.184Z,12.00
2018-08-07T12:09:55.176Z,12.50
2018-08-07T12:10:55.161Z,12.50
2018-08-07T12:11:55.248Z,11.70
2018-08-07T12:12:55.135Z,12.10
2018-08-07T12:13:55.123Z,11.40
2018-08-07T12:14:55.113Z,11.20
2018-08-07T12:15:55.099Z,11.50
2018-08-07T12:16:55.086Z,13.60
2018-08-07T12:17:55.075Z,10.50
2018-08-07T12:18:55.061Z,11.40
2018-08-07T12:19:55.050Z,11.60
2018-08-07T12:20:55.037Z,11.10
2018-08-07T12:21:55.025Z,10.00
2018-08-07T12:22:55.012Z,10.00
2018-08-07T12:23:55.000Z,11.60
2018-08-07T12:24:54.998Z,10.60
2018-08-07T12:25:54.975Z,10.60
2018-08-07T12:26:54.964Z,12.00
2018-08-07T12:27:54.951Z,10.90
2018-08-07T12:28:54.938Z,10.40
2018-08-07T12:29:55.027Z,11.40
2018-08-07T12:30:54.913Z,10.90
2018-08-07T12:31:54.903Z,10.70
2018-08-07T12:32:54.888Z,10.70
2018-08-07T12:33:54.876Z,11.40
2018-08-07T12:34:54.865Z,11.00
2018-08-07T12:35:54.957Z,10.80
2018-08-07T12:36:54.839Z,11.30
2018-08-07T12:37:54.832Z,11.70
2018-08-07T12:38:54.815Z,10.70
2018-08-07T12:39:54.805Z,11.90
2018-08-07T12:40:54.791Z,10.20
2018-08-07T12:41:54.878Z,11.70
2018-08-07T12:42:54.767Z,10.10
2018-08-07T12:43:54.755Z,9.40
2018-08-07T12:44:54.743Z,10.90
2018-08-07T12:45:54.730Z,10.10
2018-08-07T12:46:54.740Z,9.00
2018-08-07T12:47:54.708Z,10.20
2018-08-07T12:48:54.693Z,10.10
2018-08-07T12:49:54.682Z,10.10
2018-08-07T12:50:54.671Z,11.20
2018-08-07T12:51:54.659Z,9.60
2018-08-07T12:52:54.646Z,9.30
2018-08-07T12:53:54.635Z,9.30
2018-08-07T12:54:54.624Z,9.20
2018-08-07T12:55:54.611Z,9.80